Terminal Aerodrome Forecast
Issued by NWS

Home | Current Version | Previous Version | Graphics & Text | Print | Product List | Glossary On
Versions: 1 2 3 4 5 6 7 8 9 10 11 12 13 14 15 16 17 18 19 20 21
519
FTUS41 KCLE 011739
TAFFDY
TAF
KFDY 011739Z 0118/0218 02005KT 6SM HZ OVC006
      TEMPO 0118/0122 6SM SCT006 OVC012
     FM020300 04006KT 2SM -SHRA BR OVC004
     FM021000 02007KT 1SM BR OVC004=

USA.gov is the U.S. government's official web portal to all federal, state and local government web resources and services.